Time;durP1;ratioP1;P1;durP2;ratioP2;P2;SDS_P1;SDS_P2;PMS_P1;PMS_P2;Temp;Humidity;BMP_temperature;BMP_pressure;BME280_temperature;BME280_humidity;BME280_pressure;Samples;Min_cycle;Max_cycle;Signal;HPM_P1;HPM_P2
2023/05/30 00:01:54;;;;;;;12.00;4.43;;;;;;;;;;5085649;28;20120;-68
2023/05/30 00:04:21;;;;;;;7.22;4.30;;;;;;;;;;5085870;28;20185;-68
2023/05/30 00:06:47;;;;;;;14.07;4.85;;;;;;;;;;5091903;28;20060;-68
2023/05/30 00:09:14;;;;;;;11.40;4.60;;;;;;;;;;5092936;28;20048;-68
2023/05/30 00:11:40;;;;;;;8.00;3.67;;;;;;;;;;5092687;28;20032;-68
2023/05/30 00:14:08;;;;;;;11.40;4.30;;;;;;;;;;5099122;28;20039;-67
2023/05/30 00:16:34;;;;;;;8.43;3.97;;;;;;;;;;5095680;28;20580;-67
2023/05/30 00:19:01;;;;;;;8.75;4.07;;;;;;;;;;5091310;28;20047;-67
2023/05/30 00:21:27;;;;;;;13.88;3.72;;;;;;;;;;5086935;28;20048;-68
2023/05/30 00:23:53;;;;;;;7.47;4.00;;;;;;;;;;5098287;28;20222;-68
2023/05/30 00:26:20;;;;;;;9.10;4.65;;;;;;;;;;5094532;28;20092;-68
2023/05/30 00:28:46;;;;;;;8.00;3.67;;;;;;;;;;5093480;28;20093;-68
2023/05/30 00:31:12;;;;;;;12.63;4.60;;;;;;;;;;5103418;28;20500;-68
2023/05/30 00:33:38;;;;;;;9.40;4.47;;;;;;;;;;5094146;28;20059;-68
2023/05/30 00:36:04;;;;;;;13.60;4.35;;;;;;;;;;5089741;28;20136;-68
2023/05/30 00:38:30;;;;;;;10.13;4.13;;;;;;;;;;5090512;28;20032;-68
2023/05/30 00:40:56;;;;;;;8.80;3.97;;;;;;;;;;5103906;28;20040;-68
2023/05/30 00:43:22;;;;;;;9.82;3.97;;;;;;;;;;5099464;28;20396;-68
2023/05/30 00:45:50;;;;;;;6.65;4.10;;;;;;;;;;5092698;28;20118;-68
2023/05/30 00:48:17;;;;;;;9.70;4.20;;;;;;;;;;5090827;28;20024;-68
2023/05/30 00:50:43;;;;;;;7.43;3.00;;;;;;;;;;5081903;28;20482;-68
2023/05/30 00:53:10;;;;;;;10.50;4.80;;;;;;;;;;5095034;28;20305;-68
2023/05/30 00:55:37;;;;;;;6.03;3.45;;;;;;;;;;5091490;28;20032;-68
2023/05/30 00:58:03;;;;;;;9.07;3.35;;;;;;;;;;5102648;28;20040;-68
2023/05/30 01:00:30;;;;;;;8.55;3.55;;;;;;;;;;5099750;28;20039;-68
2023/05/30 01:03:05;;;;;;;10.95;4.43;;;;;;;;;;5096819;27;20430;-68
2023/05/30 01:05:31;;;;;;;7.85;4.07;;;;;;;;;;5088225;28;20044;-68
2023/05/30 01:07:58;;;;;;;10.75;4.10;;;;;;;;;;5089764;28;20494;-67
2023/05/30 01:10:24;;;;;;;12.80;4.10;;;;;;;;;;5094397;28;20035;-68
2023/05/30 01:12:53;;;;;;;10.48;3.30;;;;;;;;;;5093189;28;20063;-68
2023/05/30 01:15:32;;;;;;;9.38;4.35;;;;;;;;;;5084900;28;20491;-68
2023/05/30 01:18:07;;;;;;;10.63;4.03;;;;;;;;;;5091603;28;20036;-68
2023/05/30 01:20:37;;;;;;;12.15;3.40;;;;;;;;;;5092991;28;20121;-68
2023/05/30 01:23:22;;;;;;;11.68;4.40;;;;;;;;;;5089991;28;20039;-68
2023/05/30 01:26:18;;;;;;;12.10;4.07;;;;;;;;;;5094667;28;20048;-68
2023/05/30 01:28:45;;;;;;;8.85;3.75;;;;;;;;;;5087127;28;20048;-68
2023/05/30 01:31:12;;;;;;;12.35;4.03;;;;;;;;;;5092276;28;20395;-68
2023/05/30 01:33:39;;;;;;;7.97;3.95;;;;;;;;;;5091107;28;20075;-68
2023/05/30 01:36:06;;;;;;;7.18;3.38;;;;;;;;;;5096033;28;20036;-67
2023/05/30 01:38:34;;;;;;;14.52;4.68;;;;;;;;;;5087154;28;20028;-67
2023/05/30 01:41:00;;;;;;;8.15;4.35;;;;;;;;;;5091395;28;20048;-67
2023/05/30 01:43:35;;;;;;;10.57;4.68;;;;;;;;;;5091443;28;20036;-68
2023/05/30 01:46:01;;;;;;;11.20;4.50;;;;;;;;;;5097457;28;20057;-68
2023/05/30 01:48:49;;;;;;;14.73;4.82;;;;;;;;;;5094565;28;20409;-67
2023/05/30 01:51:18;;;;;;;13.63;4.72;;;;;;;;;;5090289;28;20040;-68
2023/05/30 01:53:49;;;;;;;10.55;4.80;;;;;;;;;;5076045;28;20047;-67
2023/05/30 01:56:15;;;;;;;8.73;4.45;;;;;;;;;;5091497;28;20120;-68
2023/05/30 01:58:41;;;;;;;10.63;5.43;;;;;;;;;;5087947;28;20040;-68
2023/05/30 02:01:08;;;;;;;11.52;4.47;;;;;;;;;;5090451;28;20781;-68
2023/05/30 02:03:34;;;;;;;8.82;4.53;;;;;;;;;;5104474;28;20075;-68
2023/05/30 02:06:00;;;;;;;8.52;5.30;;;;;;;;;;5088359;28;20067;-67
2023/05/30 02:08:27;;;;;;;8.13;4.20;;;;;;;;;;5086521;28;20181;-68
2023/05/30 02:10:53;;;;;;;11.82;4.35;;;;;;;;;;5088761;28;20055;-68
2023/05/30 02:13:19;;;;;;;12.43;5.55;;;;;;;;;;5093079;28;20035;-68
2023/05/30 02:15:46;;;;;;;13.32;4.50;;;;;;;;;;5096673;28;20036;-67
2023/05/30 02:18:12;;;;;;;8.63;3.53;;;;;;;;;;5091314;28;20455;-68
2023/05/30 02:20:39;;;;;;;11.40;4.18;;;;;;;;;;5089813;28;20144;-68
2023/05/30 02:23:05;;;;;;;9.38;4.13;;;;;;;;;;5089490;28;20122;-68
2023/05/30 02:25:31;;;;;;;7.65;3.53;;;;;;;;;;5088602;28;20127;-68
2023/05/30 02:27:57;;;;;;;9.38;3.95;;;;;;;;;;5090449;28;20116;-68
2023/05/30 02:30:23;;;;;;;11.65;5.05;;;;;;;;;;5089740;28;20066;-68
2023/05/30 02:32:49;;;;;;;10.90;4.60;;;;;;;;;;5089208;28;20044;-67
2023/05/30 02:35:15;;;;;;;10.73;4.22;;;;;;;;;;5091541;28;20140;-68
2023/05/30 02:37:42;;;;;;;13.88;4.95;;;;;;;;;;5088237;28;20430;-67
2023/05/30 02:40:11;;;;;;;13.18;5.07;;;;;;;;;;5088234;28;20506;-67
2023/05/30 02:42:37;;;;;;;9.20;4.88;;;;;;;;;;5089589;28;20474;-67
2023/05/30 02:45:04;;;;;;;14.57;4.50;;;;;;;;;;5090207;28;20132;-67
2023/05/30 02:47:31;;;;;;;10.10;4.03;;;;;;;;;;5097550;28;20035;-67
2023/05/30 02:49:57;;;;;;;14.82;4.53;;;;;;;;;;5097433;28;20032;-67
2023/05/30 02:52:23;;;;;;;10.98;4.60;;;;;;;;;;5095356;28;20418;-67
2023/05/30 02:54:49;;;;;;;13.07;4.53;;;;;;;;;;5089905;28;20482;-67
2023/05/30 02:57:15;;;;;;;17.67;5.25;;;;;;;;;;5087659;28;20447;-67
2023/05/30 02:59:41;;;;;;;15.05;4.68;;;;;;;;;;5094424;28;20048;-67
2023/05/30 03:02:09;;;;;;;15.07;4.93;;;;;;;;;;5094313;28;20126;-67
2023/05/30 03:04:36;;;;;;;16.23;4.82;;;;;;;;;;5090687;28;20105;-67
2023/05/30 03:07:02;;;;;;;14.07;5.15;;;;;;;;;;5088210;28;20521;-67
2023/05/30 03:09:29;;;;;;;9.70;5.50;;;;;;;;;;5095905;28;20040;-67
2023/05/30 03:11:55;;;;;;;10.40;4.78;;;;;;;;;;5087253;28;20072;-67
2023/05/30 03:14:21;;;;;;;7.35;3.67;;;;;;;;;;5086196;28;20043;-67
2023/05/30 03:16:48;;;;;;;9.65;4.38;;;;;;;;;;5093700;28;20035;-67
2023/05/30 03:19:14;;;;;;;15.00;4.70;;;;;;;;;;5093285;28;20036;-67
2023/05/30 03:21:41;;;;;;;22.40;5.10;;;;;;;;;;5092579;28;20056;-67
2023/05/30 03:24:07;;;;;;;15.10;4.28;;;;;;;;;;5092532;28;20050;-67
2023/05/30 03:26:33;;;;;;;13.90;4.82;;;;;;;;;;5095426;28;20032;-67
2023/05/30 03:28:59;;;;;;;10.85;4.05;;;;;;;;;;5088255;28;20047;-67
2023/05/30 03:31:27;;;;;;;11.30;4.43;;;;;;;;;;5090661;28;20086;-67
2023/05/30 03:33:53;;;;;;;11.77;3.92;;;;;;;;;;5092626;28;20147;-67
2023/05/30 03:36:20;;;;;;;10.02;4.90;;;;;;;;;;5103051;28;20047;-68
2023/05/30 03:38:46;;;;;;;8.25;4.13;;;;;;;;;;5100185;28;20040;-68
2023/05/30 03:41:12;;;;;;;8.80;3.83;;;;;;;;;;5090189;28;20048;-68
2023/05/30 03:43:39;;;;;;;13.55;4.15;;;;;;;;;;5088276;28;20052;-68
2023/05/30 03:46:05;;;;;;;17.70;5.28;;;;;;;;;;5088026;28;20036;-68
2023/05/30 03:48:31;;;;;;;9.93;3.92;;;;;;;;;;5090139;28;20043;-68
2023/05/30 03:50:58;;;;;;;11.50;4.43;;;;;;;;;;5089265;28;20078;-68
2023/05/30 03:53:24;;;;;;;11.23;4.45;;;;;;;;;;5102368;28;20032;-68
2023/05/30 03:55:50;;;;;;;9.77;5.40;;;;;;;;;;5100265;28;20046;-68
2023/05/30 03:58:16;;;;;;;10.73;4.03;;;;;;;;;;5088016;28;20032;-67
2023/05/30 04:00:42;;;;;;;11.13;3.88;;;;;;;;;;5087513;28;20487;-67
2023/05/30 04:03:08;;;;;;;11.10;4.72;;;;;;;;;;5100071;28;20079;-69
2023/05/30 04:05:34;;;;;;;12.88;4.63;;;;;;;;;;5088934;28;20056;-67
2023/05/30 04:08:00;;;;;;;11.63;5.07;;;;;;;;;;5091835;28;20640;-67
2023/05/30 04:10:27;;;;;;;12.27;4.78;;;;;;;;;;5091560;28;20075;-67
2023/05/30 04:12:53;;;;;;;12.60;4.40;;;;;;;;;;5091293;28;20123;-67
2023/05/30 04:15:19;;;;;;;11.07;4.68;;;;;;;;;;5090069;28;20491;-67
2023/05/30 04:17:45;;;;;;;10.38;4.65;;;;;;;;;;5088503;28;20039;-67
2023/05/30 04:20:12;;;;;;;8.45;4.82;;;;;;;;;;5062140;28;20044;-68
2023/05/30 04:22:38;;;;;;;25.13;5.82;;;;;;;;;;5082136;28;20040;-68
2023/05/30 04:25:05;;;;;;;10.13;4.68;;;;;;;;;;5125886;27;20079;-67
2023/05/30 04:27:32;;;;;;;14.32;5.10;;;;;;;;;;5091142;28;20543;-68
2023/05/30 04:30:02;;;;;;;10.60;4.68;;;;;;;;;;5088685;28;20056;-67
2023/05/30 04:32:33;;;;;;;14.43;5.32;;;;;;;;;;5082664;28;20059;-67
2023/05/30 04:35:00;;;;;;;8.77;4.20;;;;;;;;;;5083876;28;20159;-67
2023/05/30 04:37:27;;;;;;;11.48;4.00;;;;;;;;;;5084340;28;20097;-67
2023/05/30 04:39:55;;;;;;;14.57;4.53;;;;;;;;;;5076578;28;20098;-67
2023/05/30 04:42:26;;;;;;;9.27;4.78;;;;;;;;;;5078419;28;20032;-68
2023/05/30 04:44:54;;;;;;;10.30;3.75;;;;;;;;;;5078576;28;20400;-67
2023/05/30 04:47:24;;;;;;;12.32;4.45;;;;;;;;;;5054493;28;20086;-68
2023/05/30 04:49:53;;;;;;;10.15;4.53;;;;;;;;;;5080337;28;20219;-68
2023/05/30 04:52:20;;;;;;;9.50;3.63;;;;;;;;;;5080898;28;20031;-69
2023/05/30 04:54:46;;;;;;;9.38;4.30;;;;;;;;;;5086916;28;20042;-66
2023/05/30 04:57:12;;;;;;;11.20;3.55;;;;;;;;;;5091810;28;20028;-67
2023/05/30 04:59:39;;;;;;;6.50;3.33;;;;;;;;;;5056302;28;20066;-67
2023/05/30 05:02:05;;;;;;;6.32;2.85;;;;;;;;;;5088263;28;20123;-67
2023/05/30 05:04:31;;;;;;;9.20;3.63;;;;;;;;;;5088740;28;20071;-67
2023/05/30 05:06:58;;;;;;;8.07;3.17;;;;;;;;;;5090949;28;20137;-67
2023/05/30 05:09:24;;;;;;;5.03;2.67;;;;;;;;;;5091233;28;20497;-67
2023/05/30 05:11:50;;;;;;;8.38;2.75;;;;;;;;;;5091250;28;20032;-67
2023/05/30 05:14:17;;;;;;;7.10;3.63;;;;;;;;;;5080567;28;20053;-68
2023/05/30 05:16:43;;;;;;;9.00;3.30;;;;;;;;;;5088753;28;20448;-68
2023/05/30 05:19:09;;;;;;;6.60;2.70;;;;;;;;;;5089426;28;20042;-68
2023/05/30 05:21:36;;;;;;;7.07;2.75;;;;;;;;;;5090869;28;20047;-68
2023/05/30 05:24:03;;;;;;;6.45;2.97;;;;;;;;;;5089338;28;20048;-68
2023/05/30 05:26:29;;;;;;;5.07;2.80;;;;;;;;;;5092268;28;20070;-68
2023/05/30 05:28:56;;;;;;;4.47;2.80;;;;;;;;;;5089395;28;20082;-68
2023/05/30 05:31:22;;;;;;;5.75;2.78;;;;;;;;;;5088957;28;20048;-68
2023/05/30 05:33:48;;;;;;;10.27;2.88;;;;;;;;;;5083876;28;20081;-68
2023/05/30 05:36:15;;;;;;;7.90;3.25;;;;;;;;;;5089895;28;20127;-68
2023/05/30 05:38:41;;;;;;;14.55;3.60;;;;;;;;;;5083133;28;20109;-68
2023/05/30 05:41:07;;;;;;;7.40;2.72;;;;;;;;;;5091850;28;20714;-68
2023/05/30 05:43:33;;;;;;;8.90;3.30;;;;;;;;;;5088027;28;20040;-68
2023/05/30 05:45:59;;;;;;;8.63;2.97;;;;;;;;;;5094547;28;20048;-68
2023/05/30 05:48:25;;;;;;;4.88;2.95;;;;;;;;;;5089938;28;20035;-68
2023/05/30 05:50:52;;;;;;;8.90;4.05;;;;;;;;;;5089458;28;20199;-68
2023/05/30 05:53:18;;;;;;;11.70;3.67;;;;;;;;;;5090656;28;20403;-68
2023/05/30 05:55:45;;;;;;;6.57;3.50;;;;;;;;;;5092742;28;20040;-68
2023/05/30 05:58:12;;;;;;;7.20;2.30;;;;;;;;;;5093572;28;20447;-68
2023/05/30 06:00:38;;;;;;;9.13;2.78;;;;;;;;;;5087280;28;20056;-68
2023/05/30 06:03:05;;;;;;;8.13;3.53;;;;;;;;;;5099194;28;20036;-66
2023/05/30 06:05:31;;;;;;;9.30;4.30;;;;;;;;;;5084460;28;20192;-66
2023/05/30 06:07:58;;;;;;;12.43;3.90;;;;;;;;;;5091998;28;20150;-66
2023/05/30 06:10:25;;;;;;;6.57;2.35;;;;;;;;;;5089769;28;20036;-66
2023/05/30 06:12:51;;;;;;;6.60;3.13;;;;;;;;;;5089961;28;20047;-66
2023/05/30 06:15:17;;;;;;;9.25;4.07;;;;;;;;;;5096493;28;20039;-67
2023/05/30 06:17:43;;;;;;;4.47;2.63;;;;;;;;;;5093629;28;20043;-67
2023/05/30 06:20:09;;;;;;;5.47;2.88;;;;;;;;;;5088924;28;20051;-67
2023/05/30 06:22:35;;;;;;;13.93;3.22;;;;;;;;;;5088894;28;20152;-67
2023/05/30 06:25:01;;;;;;;9.00;3.15;;;;;;;;;;5094025;28;20120;-66
2023/05/30 06:27:28;;;;;;;5.40;2.13;;;;;;;;;;5091262;28;20796;-66
2023/05/30 06:29:54;;;;;;;6.63;3.40;;;;;;;;;;5091501;28;20039;-67
2023/05/30 06:32:20;;;;;;;10.73;2.92;;;;;;;;;;5073692;28;20072;-67
2023/05/30 06:34:46;;;;;;;5.45;2.20;;;;;;;;;;5088613;28;20067;-66
2023/05/30 06:37:13;;;;;;;6.03;2.28;;;;;;;;;;5088831;28;20120;-67
2023/05/30 06:39:39;;;;;;;5.47;2.03;;;;;;;;;;5071238;28;20142;-67
2023/05/30 06:42:07;;;;;;;5.13;2.65;;;;;;;;;;5094592;28;20126;-67
2023/05/30 06:44:33;;;;;;;5.47;2.65;;;;;;;;;;5090383;28;20101;-67
2023/05/30 06:47:00;;;;;;;6.65;2.40;;;;;;;;;;5088157;28;20055;-67
2023/05/30 06:49:26;;;;;;;4.82;2.45;;;;;;;;;;5088083;28;20067;-67
2023/05/30 06:51:52;;;;;;;4.78;2.28;;;;;;;;;;5086184;28;20097;-67
2023/05/30 06:54:18;;;;;;;6.82;3.45;;;;;;;;;;5090093;28;20262;-67
2023/05/30 06:56:45;;;;;;;34.83;8.13;;;;;;;;;;5088681;28;20407;-65
2023/05/30 06:59:11;;;;;;;6.50;3.08;;;;;;;;;;5088247;28;20451;-63
2023/05/30 07:01:37;;;;;;;3.95;1.70;;;;;;;;;;5093393;28;20067;-63
2023/05/30 07:04:03;;;;;;;5.40;1.83;;;;;;;;;;5091447;28;20111;-63
2023/05/30 07:06:30;;;;;;;4.80;2.10;;;;;;;;;;5087398;28;20054;-63
2023/05/30 07:08:57;;;;;;;5.47;2.50;;;;;;;;;;5071804;28;20410;-62
2023/05/30 07:11:24;;;;;;;2.75;1.80;;;;;;;;;;5094412;28;20062;-62
2023/05/30 07:13:50;;;;;;;7.45;3.15;;;;;;;;;;5090910;28;20036;-62
2023/05/30 07:16:16;;;;;;;11.05;2.88;;;;;;;;;;5088808;28;20189;-62
2023/05/30 07:18:42;;;;;;;4.95;2.10;;;;;;;;;;5094154;28;20119;-62
2023/05/30 07:21:08;;;;;;;6.70;2.38;;;;;;;;;;5088970;28;20032;-62
2023/05/30 07:23:35;;;;;;;8.25;2.55;;;;;;;;;;5088365;28;20051;-62
2023/05/30 07:26:01;;;;;;;4.85;2.25;;;;;;;;;;5085980;28;20120;-63
2023/05/30 07:28:27;;;;;;;4.70;2.67;;;;;;;;;;5090729;28;20106;-62
2023/05/30 07:30:54;;;;;;;7.30;2.63;;;;;;;;;;5091286;28;20067;-69
2023/05/30 07:33:20;;;;;;;4.05;1.75;;;;;;;;;;5086743;28;20040;-67
2023/05/30 07:35:46;;;;;;;5.32;2.50;;;;;;;;;;5090956;28;20394;-67
2023/05/30 07:38:12;;;;;;;6.47;2.40;;;;;;;;;;5082475;28;20043;-67
2023/05/30 07:40:38;;;;;;;3.60;2.08;;;;;;;;;;5081702;28;20510;-67
2023/05/30 07:43:05;;;;;;;6.28;2.00;;;;;;;;;;5090339;28;20078;-68
2023/05/30 07:45:31;;;;;;;3.47;1.75;;;;;;;;;;5089947;28;20040;-67
2023/05/30 07:47:57;;;;;;;3.30;2.03;;;;;;;;;;5101657;28;20040;-67
2023/05/30 07:50:23;;;;;;;8.05;2.00;;;;;;;;;;5099457;28;20050;-68
2023/05/30 07:52:49;;;;;;;5.90;2.20;;;;;;;;;;5096453;28;20059;-68
2023/05/30 07:55:15;;;;;;;7.97;2.38;;;;;;;;;;5092364;28;20040;-68
2023/05/30 07:57:42;;;;;;;5.10;2.55;;;;;;;;;;5092008;28;20047;-67
2023/05/30 08:00:08;;;;;;;2.80;1.63;;;;;;;;;;5094676;28;20355;-67
2023/05/30 08:02:35;;;;;;;4.05;1.63;;;;;;;;;;5105799;28;20047;-68
2023/05/30 08:05:02;;;;;;;2.00;1.30;;;;;;;;;;5093116;28;20036;-67
2023/05/30 08:07:31;;;;;;;5.10;2.22;;;;;;;;;;5083060;28;20067;-68
2023/05/30 08:09:57;;;;;;;5.07;2.55;;;;;;;;;;5092904;28;20072;-68
2023/05/30 08:12:28;;;;;;;3.88;1.50;;;;;;;;;;5091162;28;20406;-68
2023/05/30 08:14:55;;;;;;;1.48;0.70;;;;;;;;;;5101133;28;20115;-68
2023/05/30 08:17:23;;;;;;;2.22;1.02;;;;;;;;;;5091977;28;20483;-68
2023/05/30 08:19:52;;;;;;;1.45;0.65;;;;;;;;;;5091345;28;20155;-68
2023/05/30 08:22:21;;;;;;;1.13;1.02;;;;;;;;;;5090652;28;20070;-71
2023/05/30 08:24:53;;;;;;;2.97;0.90;;;;;;;;;;5093818;28;20344;-70
2023/05/30 08:27:20;;;;;;;9.07;1.35;;;;;;;;;;5090546;28;20109;-70
2023/05/30 08:29:48;;;;;;;2.08;1.10;;;;;;;;;;5090613;28;20063;-71
2023/05/30 08:32:15;;;;;;;1.48;0.90;;;;;;;;;;5089664;28;20456;-70
2023/05/30 08:34:41;;;;;;;1.45;0.70;;;;;;;;;;5095399;28;20046;-70
2023/05/30 08:37:07;;;;;;;2.60;1.00;;;;;;;;;;5094016;28;20085;-70
2023/05/30 08:39:33;;;;;;;2.47;0.80;;;;;;;;;;5093558;28;20088;-70
2023/05/30 08:42:00;;;;;;;3.03;1.00;;;;;;;;;;5071111;28;20032;-70
2023/05/30 08:44:26;;;;;;;13.77;1.27;;;;;;;;;;5090772;28;20034;-69
2023/05/30 08:46:53;;;;;;;4.35;1.05;;;;;;;;;;5091853;28;20028;-69
2023/05/30 08:49:21;;;;;;;40.95;4.22;;;;;;;;;;5074412;28;20036;-69
2023/05/30 08:51:48;;;;;;;2.60;1.08;;;;;;;;;;5092927;28;20075;-69
2023/05/30 08:54:21;;;;;;;2.55;1.20;;;;;;;;;;5088615;28;20486;-67
2023/05/30 08:56:51;;;;;;;2.25;0.70;;;;;;;;;;5089870;28;20051;-67
2023/05/30 08:59:19;;;;;;;2.92;1.25;;;;;;;;;;5093126;28;20117;-65
2023/05/30 09:01:46;;;;;;;1.20;0.70;;;;;;;;;;5093925;28;20711;-65
2023/05/30 09:04:13;;;;;;;5.80;1.33;;;;;;;;;;5092141;28;20380;-67
2023/05/30 09:06:40;;;;;;;1.60;0.80;;;;;;;;;;5092265;28;20607;-65
2023/05/30 09:09:09;;;;;;;1.55;0.93;;;;;;;;;;5090866;28;20075;-65
2023/05/30 09:11:36;;;;;;;1.25;0.60;;;;;;;;;;5096852;28;20474;-65
2023/05/30 09:14:02;;;;;;;1.92;0.88;;;;;;;;;;5090597;28;20081;-65
2023/05/30 09:16:28;;;;;;;1.70;0.75;;;;;;;;;;5089691;28;20043;-65
2023/05/30 09:18:54;;;;;;;1.73;1.48;;;;;;;;;;5082948;28;20403;-65
2023/05/30 09:21:20;;;;;;;1.92;0.73;;;;;;;;;;5093559;28;21310;-65
2023/05/30 09:23:46;;;;;;;3.30;1.08;;;;;;;;;;5091496;28;20043;-66
2023/05/30 09:26:15;;;;;;;3.47;0.93;;;;;;;;;;5092379;28;20093;-65
2023/05/30 09:28:45;;;;;;;2.33;0.80;;;;;;;;;;5085393;28;20044;-65
2023/05/30 09:31:12;;;;;;;2.50;0.90;;;;;;;;;;5090170;28;20050;-65
2023/05/30 09:33:48;;;;;;;1.70;0.90;;;;;;;;;;5091518;28;20575;-65
2023/05/30 09:36:18;;;;;;;1.20;0.57;;;;;;;;;;5089584;28;20040;-65
2023/05/30 09:38:58;;;;;;;2.72;0.98;;;;;;;;;;5095879;28;20042;-65
2023/05/30 09:41:25;;;;;;;2.20;0.90;;;;;;;;;;5093863;28;20044;-65
2023/05/30 09:43:53;;;;;;;1.75;0.50;;;;;;;;;;5085778;28;20410;-65
2023/05/30 09:46:22;;;;;;;2.10;0.93;;;;;;;;;;5085402;28;20067;-65
2023/05/30 09:48:48;;;;;;;1.48;0.82;;;;;;;;;;5093450;28;20048;-65
2023/05/30 09:51:15;;;;;;;0.47;0.40;;;;;;;;;;5088611;28;20479;-65
2023/05/30 09:53:54;;;;;;;3.90;1.00;;;;;;;;;;5089388;28;20032;-65
2023/05/30 09:56:20;;;;;;;33.05;4.45;;;;;;;;;;5088437;28;20100;-65
2023/05/30 09:58:46;;;;;;;27.23;5.25;;;;;;;;;;5093384;28;20069;-65
2023/05/30 10:01:18;;;;;;;3.15;1.02;;;;;;;;;;5081798;28;20525;-65
2023/05/30 10:03:44;;;;;;;2.97;1.40;;;;;;;;;;5090415;28;20051;-65
2023/05/30 10:06:14;;;;;;;3.15;0.90;;;;;;;;;;5095912;28;20127;-65
2023/05/30 10:08:44;;;;;;;3.63;1.00;;;;;;;;;;5090241;28;20059;-65
2023/05/30 10:11:10;;;;;;;32.92;3.45;;;;;;;;;;5090160;28;20529;-65
2023/05/30 10:13:37;;;;;;;18.95;3.95;;;;;;;;;;5096530;28;20100;-66
2023/05/30 10:16:05;;;;;;;2.78;1.17;;;;;;;;;;5088509;28;20115;-65
2023/05/30 10:18:32;;;;;;;1.45;0.80;;;;;;;;;;5089699;28;20184;-65
2023/05/30 10:21:00;;;;;;;1.08;0.68;;;;;;;;;;5090524;28;20047;-65
2023/05/30 10:23:26;;;;;;;1.00;0.80;;;;;;;;;;5095927;28;20036;-65
2023/05/30 10:25:54;;;;;;;4.13;1.00;;;;;;;;;;5088186;28;20119;-66
2023/05/30 10:28:23;;;;;;;4.60;1.00;;;;;;;;;;5087649;28;20044;-67
2023/05/30 10:30:51;;;;;;;1.33;0.75;;;;;;;;;;5086848;28;20040;-66
2023/05/30 10:33:18;;;;;;;1.25;0.93;;;;;;;;;;5087868;28;20040;-67
2023/05/30 10:35:46;;;;;;;1.05;0.95;;;;;;;;;;5093771;28;20471;-67
2023/05/30 10:38:12;;;;;;;1.55;0.90;;;;;;;;;;5088425;28;20103;-67
2023/05/30 10:40:42;;;;;;;2.22;0.60;;;;;;;;;;5089942;28;20632;-66
2023/05/30 10:43:08;;;;;;;2.10;0.85;;;;;;;;;;5093369;28;20128;-67
2023/05/30 10:45:47;;;;;;;1.55;0.70;;;;;;;;;;5090137;28;20148;-67
2023/05/30 10:48:13;;;;;;;1.77;0.63;;;;;;;;;;5088498;28;20048;-67
2023/05/30 10:50:40;;;;;;;1.13;0.50;;;;;;;;;;5087459;28;20048;-67
2023/05/30 10:53:17;;;;;;;3.38;0.82;;;;;;;;;;5091813;28;20491;-66
2023/05/30 10:55:46;;;;;;;2.28;1.15;;;;;;;;;;5085436;28;20207;-67
2023/05/30 10:58:31;;;;;;;1.02;0.88;;;;;;;;;;5086909;28;20085;-67
2023/05/30 11:01:17;;;;;;;1.60;0.95;;;;;;;;;;5095834;28;20477;-67
2023/05/30 11:03:45;;;;;;;2.92;1.40;;;;;;;;;;5084037;28;20043;-66
2023/05/30 11:06:12;;;;;;;2.15;0.95;;;;;;;;;;5091348;28;20055;-67
2023/05/30 11:08:40;;;;;;;2.08;0.80;;;;;;;;;;5089496;28;20749;-66
2023/05/30 11:11:16;;;;;;;2.25;0.73;;;;;;;;;;5087460;28;20044;-66
2023/05/30 11:13:50;;;;;;;2.22;1.15;;;;;;;;;;5092464;28;20043;-66
2023/05/30 11:16:23;;;;;;;3.05;0.85;;;;;;;;;;5089998;28;20040;-67
2023/05/30 11:18:50;;;;;;;2.20;1.00;;;;;;;;;;5091448;28;20048;-66
2023/05/30 11:21:16;;;;;;;1.77;1.25;;;;;;;;;;5092652;28;20047;-67
2023/05/30 11:24:00;;;;;;;1.77;1.05;;;;;;;;;;5095884;28;20047;-66
2023/05/30 11:26:45;;;;;;;4.28;1.73;;;;;;;;;;5087023;28;20135;-66
2023/05/30 11:29:31;;;;;;;1.50;0.90;;;;;;;;;;5100092;28;20390;-66
2023/05/30 11:31:57;;;;;;;1.85;1.00;;;;;;;;;;5090333;28;20044;-66
2023/05/30 11:34:23;;;;;;;1.30;1.00;;;;;;;;;;5069103;28;20572;-66
2023/05/30 11:36:52;;;;;;;2.47;1.13;;;14.50;98.50;;;;;;5091973;28;20385;-66
2023/05/30 11:39:19;;;;;;;2.20;0.95;;;;;;;;;;5095028;28;20376;-66
2023/05/30 11:41:46;;;;;;;0.88;0.55;;;;;;;;;;5097288;28;20067;-67
2023/05/30 11:44:13;;;;;;;2.22;0.70;;;;;;;;;;5095049;28;20048;-66
2023/05/30 11:46:39;;;;;;;2.63;0.73;;;;;;;;;;5089058;28;20054;-66
2023/05/30 11:49:06;;;;;;;2.90;0.80;;;;;;;;;;5098764;28;20459;-66
2023/05/30 11:51:32;;;;;;;2.50;1.27;;;;;;;;;;5088922;28;20036;-65
2023/05/30 11:54:02;;;;;;;2.20;1.30;;;;;;;;;;5093084;28;20115;-65
2023/05/30 11:56:31;;;;;;;2.00;1.40;;;;;;;;;;5094972;28;20032;-66
2023/05/30 11:58:58;;;;;;;1.38;0.95;;;;;;;;;;5092311;28;20067;-66
2023/05/30 12:01:24;;;;;;;1.80;1.10;;;;;;;;;;5097081;28;20046;-66
2023/05/30 12:03:50;;;;;;;2.80;1.10;;;;;;;;;;5092346;28;20056;-64
2023/05/30 12:06:16;;;;;;;2.13;1.10;;;;;;;;;;5091183;28;20052;-66
2023/05/30 12:08:44;;;;;;;1.42;1.10;;;;;;;;;;5090360;28;20048;-65
2023/05/30 12:11:11;;;;;;;2.53;0.90;;;;;;;;;;5095155;28;20046;-66
2023/05/30 12:13:37;;;;;;;2.95;1.63;;;;;;;;;;5078385;28;20056;-66
2023/05/30 12:16:03;;;;;;;3.35;1.10;;;;;;;;;;5094497;28;20452;-67
2023/05/30 12:18:31;;;;;;;2.42;1.15;;;;;;;;;;5090514;28;20455;-66
2023/05/30 12:21:02;;;;;;;2.50;1.15;;;;;;;;;;5090435;28;20046;-67
2023/05/30 12:23:28;;;;;;;3.50;1.52;;;;;;;;;;5089182;28;20040;-62
2023/05/30 12:25:55;;;;;;;5.05;1.70;;;;;;;;;;5095972;28;20024;-61
2023/05/30 12:28:22;;;;;;;4.55;2.28;;;;;;;;;;5094450;28;20040;-61
2023/05/30 12:30:50;;;;;;;2.60;1.45;;;;;;;;;;5090710;28;20036;-61
2023/05/30 12:33:17;;;;;;;3.05;1.67;;;;;;;;;;5097495;28;20031;-61
2023/05/30 12:35:44;;;;;;;3.10;1.45;;;;;;;;;;5094826;28;20368;-60
2023/05/30 12:38:16;;;;;;;2.95;1.38;;;;;;;;;;5091127;28;20559;-61
2023/05/30 12:40:46;;;;;;;2.83;1.40;;;;;;;;;;5086518;28;20135;-62
2023/05/30 12:43:13;;;;;;;1.55;1.00;;;;;;;;;;5096813;28;20047;-62
2023/05/30 12:45:39;;;;;;;2.72;1.60;;;;;;;;;;5091927;28;20052;-64
2023/05/30 12:48:05;;;;;;;4.03;1.65;;;;;;;;;;5091178;28;20101;-63
2023/05/30 12:50:32;;;;;;;2.70;1.70;;;;;;;;;;5096609;28;20112;-63
2023/05/30 12:52:58;;;;;;;2.83;1.60;;;;;;;;;;5092371;28;20036;-64
2023/05/30 12:55:24;;;;;;;3.38;1.60;;;;;;;;;;5088766;28;20043;-63
2023/05/30 12:57:50;;;;;;;2.08;1.23;;;;;;;;;;5090481;28;20128;-63
2023/05/30 13:00:17;;;;;;;2.08;1.30;;;;;;;;;;5094646;28;20049;-62
2023/05/30 13:02:43;;;;;;;3.20;1.52;;;;;;;;;;5100343;28;20044;-62
2023/05/30 13:05:09;;;;;;;2.38;1.20;;;;;;;;;;5093436;28;20066;-68
2023/05/30 13:07:36;;;;;;;6.90;1.83;;;;;;;;;;5057996;28;20047;-66
2023/05/30 13:10:02;;;;;;;3.67;1.60;;;;;;;;;;5071655;28;20037;-66
2023/05/30 13:12:28;;;;;;;2.67;1.20;;;;;;;;;;5095014;28;20047;-66
2023/05/30 13:14:54;;;;;;;2.65;0.95;;;;;;;;;;5088648;28;20101;-66
2023/05/30 13:17:22;;;;;;;1.50;0.80;;;;;;;;;;5088883;28;20040;-66
2023/05/30 13:19:48;;;;;;;1.85;0.80;;;;;;;;;;5120395;27;20042;-66
2023/05/30 13:22:15;;;;;;;1.85;0.98;;;;;;;;;;5093245;28;20066;-66
2023/05/30 13:24:41;;;;;;;4.22;1.00;;;;;;;;;;5089693;28;20185;-66
2023/05/30 13:27:07;;;;;;;0.95;0.60;;;;;;;;;;5088246;28;20036;-66
2023/05/30 13:29:34;;;;;;;1.50;0.98;;;;;;;;;;5091339;28;20032;-66
2023/05/30 13:32:00;;;;;;;2.33;0.82;;;;;;;;;;5093382;28;20107;-66
2023/05/30 13:34:26;;;;;;;1.45;0.70;;;;;;;;;;5089998;28;20035;-67
2023/05/30 13:36:52;;;;;;;2.55;1.23;;;;;;;;;;5092876;28;20072;-66
2023/05/30 13:39:19;;;;;;;2.00;1.02;;;;;;;;;;5096955;28;20069;-67
2023/05/30 13:41:45;;;;;;;2.08;1.70;;;;;;;;;;5090227;28;20151;-66
2023/05/30 13:44:11;;;;;;;3.70;1.20;;;;;;;;;;5093996;28;20059;-66
2023/05/30 13:46:37;;;;;;;3.53;1.48;;;;;;;;;;5089864;28;20055;-65
2023/05/30 13:49:04;;;;;;;1.98;1.15;;;;;;;;;;5088486;28;20187;-65
2023/05/30 13:51:34;;;;;;;1.65;0.93;;;;;;;;;;5089012;28;20851;-66
2023/05/30 13:54:01;;;;;;;2.03;1.15;;;;;;;;;;5093763;28;20044;-65
2023/05/30 13:56:28;;;;;;;1.65;1.10;;;;;;;;;;5087285;28;20038;-65
2023/05/30 13:58:55;;;;;;;2.85;1.08;;;;;;;;;;5089031;28;20039;-67
2023/05/30 14:01:22;;;;;;;1.65;0.95;;;;;;;;;;5089917;28;20036;-67
2023/05/30 14:03:48;;;;;;;1.83;0.85;;;;;;;;;;5092683;28;20178;-67
2023/05/30 14:06:15;;;;;;;3.35;1.10;;;;;;;;;;5095411;28;20371;-65
2023/05/30 14:08:41;;;;;;;1.83;1.10;;;;;;;;;;5093396;28;20054;-65
2023/05/30 14:11:07;;;;;;;4.45;1.48;;;;;;;;;;5090812;28;20032;-66
2023/05/30 14:13:34;;;;;;;3.20;1.10;;;;;;;;;;5086457;28;20048;-65
2023/05/30 14:16:00;;;;;;;3.80;0.90;;;;;;;;;;5091351;28;20663;-65
2023/05/30 14:18:26;;;;;;;2.03;0.93;;;;;;;;;;5092076;28;20052;-66
2023/05/30 14:20:52;;;;;;;5.78;1.13;;;;;;;;;;5083695;28;20058;-66
2023/05/30 14:23:18;;;;;;;2.47;1.27;;;;;;;;;;5082843;28;20038;-65
2023/05/30 14:25:45;;;;;;;3.28;1.50;;;;;;;;;;5088199;28;20082;-65
2023/05/30 14:28:11;;;;;;;3.67;1.13;;;;;;;;;;5088806;28;20344;-65
2023/05/30 14:30:37;;;;;;;1.45;1.08;;;;;;;;;;5089108;28;20167;-66
2023/05/30 14:33:04;;;;;;;2.28;1.05;;;;;;;;;;5092149;28;20043;-65
2023/05/30 14:35:30;;;;;;;1.63;0.90;;;;;;;;;;5089229;28;20089;-66
2023/05/30 14:37:56;;;;;;;2.15;1.17;;;;;;;;;;5091784;28;20063;-66
2023/05/30 14:40:22;;;;;;;3.38;1.40;;;;;;;;;;5088820;28;20040;-66